sensor_id;sensor_type;location;lat;lon;timestamp;temperature;humidity
41756;DHT22;27435;48.480;9.258;2023-12-20T00:01:35;7.10;99.00
41756;DHT22;27435;48.480;9.258;2023-12-20T00:04:02;7.10;99.00
41756;DHT22;27435;48.480;9.258;2023-12-20T00:06:27;7.00;99.00
41756;DHT22;27435;48.480;9.258;2023-12-20T00:08:53;7.00;99.00
41756;DHT22;27435;48.480;9.258;2023-12-20T00:11:19;7.00;99.00
41756;DHT22;27435;48.480;9.258;2023-12-20T00:13:44;7.10;99.00
41756;DHT22;27435;48.480;9.258;2023-12-20T00:16:10;7.10;99.00
41756;DHT22;27435;48.480;9.258;2023-12-20T00:18:36;7.10;99.00
41756;DHT22;27435;48.480;9.258;2023-12-20T00:21:02;7.20;99.00
41756;DHT22;27435;48.480;9.258;2023-12-20T00:23:28;7.10;99.00
41756;DHT22;27435;48.480;9.258;2023-12-20T00:25:54;7.20;99.00
41756;DHT22;27435;48.480;9.258;2023-12-20T00:28:19;7.30;99.00
41756;DHT22;27435;48.480;9.258;2023-12-20T00:30:45;7.40;99.00
41756;DHT22;27435;48.480;9.258;2023-12-20T00:33:11;7.40;99.00
41756;DHT22;27435;48.480;9.258;2023-12-20T00:35:36;7.40;99.00
41756;DHT22;27435;48.480;9.258;2023-12-20T00:38:02;7.50;99.00
41756;DHT22;27435;48.480;9.258;2023-12-20T00:40:28;7.40;99.00
41756;DHT22;27435;48.480;9.258;2023-12-20T00:42:53;7.20;99.00
41756;DHT22;27435;48.480;9.258;2023-12-20T00:45:19;7.20;99.00
41756;DHT22;27435;48.480;9.258;2023-12-20T00:47:45;7.20;99.00
41756;DHT22;27435;48.480;9.258;2023-12-20T00:50:10;7.30;99.00
41756;DHT22;27435;48.480;9.258;2023-12-20T00:52:36;7.30;99.00
41756;DHT22;27435;48.480;9.258;2023-12-20T00:55:02;7.30;99.00
41756;DHT22;27435;48.480;9.258;2023-12-20T00:57:29;7.30;99.00
41756;DHT22;27435;48.480;9.258;2023-12-20T00:59:54;7.20;99.00
41756;DHT22;27435;48.480;9.258;2023-12-20T01:02:20;7.20;99.00
41756;DHT22;27435;48.480;9.258;2023-12-20T01:04:46;7.10;99.00
41756;DHT22;27435;48.480;9.258;2023-12-20T01:07:12;7.10;99.00
41756;DHT22;27435;48.480;9.258;2023-12-20T01:09:38;7.00;99.00
41756;DHT22;27435;48.480;9.258;2023-12-20T01:12:03;7.10;99.00
41756;DHT22;27435;48.480;9.258;2023-12-20T01:14:29;7.10;99.00
41756;DHT22;27435;48.480;9.258;2023-12-20T01:16:55;7.10;99.00
41756;DHT22;27435;48.480;9.258;2023-12-20T01:19:20;7.00;99.00
41756;DHT22;27435;48.480;9.258;2023-12-20T01:21:46;6.90;99.00
41756;DHT22;27435;48.480;9.258;2023-12-20T01:24:12;6.70;99.00
41756;DHT22;27435;48.480;9.258;2023-12-20T01:26:38;6.50;99.00
41756;DHT22;27435;48.480;9.258;2023-12-20T01:29:03;6.50;99.00
41756;DHT22;27435;48.480;9.258;2023-12-20T01:31:29;6.40;99.00
41756;DHT22;27435;48.480;9.258;2023-12-20T01:33:54;6.40;99.00
41756;DHT22;27435;48.480;9.258;2023-12-20T01:36:20;6.50;99.00
41756;DHT22;27435;48.480;9.258;2023-12-20T01:38:45;6.30;99.00
41756;DHT22;27435;48.480;9.258;2023-12-20T01:41:11;6.20;99.00
41756;DHT22;27435;48.480;9.258;2023-12-20T01:43:37;6.20;99.00
41756;DHT22;27435;48.480;9.258;2023-12-20T01:46:03;6.00;99.00
41756;DHT22;27435;48.480;9.258;2023-12-20T01:48:29;5.90;99.00
41756;DHT22;27435;48.480;9.258;2023-12-20T01:50:59;5.90;99.00
41756;DHT22;27435;48.480;9.258;2023-12-20T01:53:25;6.00;99.00
41756;DHT22;27435;48.480;9.258;2023-12-20T01:55:55;5.90;99.00
41756;DHT22;27435;48.480;9.258;2023-12-20T01:58:21;5.80;99.00
41756;DHT22;27435;48.480;9.258;2023-12-20T02:00:48;5.80;99.00
41756;DHT22;27435;48.480;9.258;2023-12-20T02:03:14;5.80;99.00
41756;DHT22;27435;48.480;9.258;2023-12-20T02:05:40;5.80;99.00
41756;DHT22;27435;48.480;9.258;2023-12-20T02:08:06;5.70;99.00
41756;DHT22;27435;48.480;9.258;2023-12-20T02:10:32;5.70;99.00
41756;DHT22;27435;48.480;9.258;2023-12-20T02:12:58;5.60;99.00
41756;DHT22;27435;48.480;9.258;2023-12-20T02:15:24;5.70;99.00
41756;DHT22;27435;48.480;9.258;2023-12-20T02:17:50;5.60;99.00
41756;DHT22;27435;48.480;9.258;2023-12-20T02:20:15;5.60;99.00
41756;DHT22;27435;48.480;9.258;2023-12-20T02:22:41;5.70;99.00
41756;DHT22;27435;48.480;9.258;2023-12-20T02:25:07;5.70;99.00
41756;DHT22;27435;48.480;9.258;2023-12-20T02:27:33;5.80;99.00
41756;DHT22;27435;48.480;9.258;2023-12-20T02:29:59;5.80;99.00
41756;DHT22;27435;48.480;9.258;2023-12-20T02:32:25;5.70;99.00
41756;DHT22;27435;48.480;9.258;2023-12-20T02:34:55;5.70;99.00
41756;DHT22;27435;48.480;9.258;2023-12-20T02:37:21;5.60;99.00
41756;DHT22;27435;48.480;9.258;2023-12-20T02:39:46;5.60;99.00
41756;DHT22;27435;48.480;9.258;2023-12-20T02:42:12;5.70;99.00
41756;DHT22;27435;48.480;9.258;2023-12-20T02:44:38;5.70;99.00
41756;DHT22;27435;48.480;9.258;2023-12-20T02:47:04;5.70;99.00
41756;DHT22;27435;48.480;9.258;2023-12-20T02:49:29;5.70;99.00
41756;DHT22;27435;48.480;9.258;2023-12-20T02:51:55;5.60;99.00
41756;DHT22;27435;48.480;9.258;2023-12-20T02:54:21;5.50;99.00
41756;DHT22;27435;48.480;9.258;2023-12-20T02:56:46;5.60;99.00
41756;DHT22;27435;48.480;9.258;2023-12-20T02:59:12;5.60;99.00
41756;DHT22;27435;48.480;9.258;2023-12-20T03:01:45;5.60;99.00
41756;DHT22;27435;48.480;9.258;2023-12-20T03:04:12;5.60;99.00
41756;DHT22;27435;48.480;9.258;2023-12-20T03:06:38;5.60;99.00
41756;DHT22;27435;48.480;9.258;2023-12-20T03:09:04;5.70;99.00
41756;DHT22;27435;48.480;9.258;2023-12-20T03:11:29;5.60;99.00
41756;DHT22;27435;48.480;9.258;2023-12-20T03:13:56;5.70;99.00
41756;DHT22;27435;48.480;9.258;2023-12-20T03:16:21;5.70;99.00
41756;DHT22;27435;48.480;9.258;2023-12-20T03:18:47;5.60;99.00
41756;DHT22;27435;48.480;9.258;2023-12-20T03:21:13;5.60;99.00
41756;DHT22;27435;48.480;9.258;2023-12-20T03:23:39;5.70;99.00
41756;DHT22;27435;48.480;9.258;2023-12-20T03:26:09;5.60;99.00
41756;DHT22;27435;48.480;9.258;2023-12-20T03:28:36;5.70;99.00
41756;DHT22;27435;48.480;9.258;2023-12-20T03:31:02;5.70;99.00
41756;DHT22;27435;48.480;9.258;2023-12-20T03:33:28;5.70;99.00
41756;DHT22;27435;48.480;9.258;2023-12-20T03:35:53;5.70;99.00
41756;DHT22;27435;48.480;9.258;2023-12-20T03:38:20;5.70;99.00
41756;DHT22;27435;48.480;9.258;2023-12-20T03:40:45;5.60;99.00
41756;DHT22;27435;48.480;9.258;2023-12-20T03:43:11;5.60;99.00
41756;DHT22;27435;48.480;9.258;2023-12-20T03:45:36;5.60;99.00
41756;DHT22;27435;48.480;9.258;2023-12-20T03:48:02;5.60;99.00
41756;DHT22;27435;48.480;9.258;2023-12-20T03:50:29;5.60;99.00
41756;DHT22;27435;48.480;9.258;2023-12-20T03:52:54;5.50;99.00
41756;DHT22;27435;48.480;9.258;2023-12-20T03:55:20;5.50;99.00
41756;DHT22;27435;48.480;9.258;2023-12-20T03:57:45;5.50;99.00
41756;DHT22;27435;48.480;9.258;2023-12-20T04:00:11;5.40;99.00
41756;DHT22;27435;48.480;9.258;2023-12-20T04:02:41;5.50;99.00
41756;DHT22;27435;48.480;9.258;2023-12-20T04:05:08;5.40;99.00
41756;DHT22;27435;48.480;9.258;2023-12-20T04:07:34;5.40;99.00
41756;DHT22;27435;48.480;9.258;2023-12-20T04:10:00;5.40;99.00
41756;DHT22;27435;48.480;9.258;2023-12-20T04:12:27;5.30;99.00
41756;DHT22;27435;48.480;9.258;2023-12-20T04:14:53;5.30;99.00
41756;DHT22;27435;48.480;9.258;2023-12-20T04:17:20;5.40;99.00
41756;DHT22;27435;48.480;9.258;2023-12-20T04:19:45;5.30;99.00
41756;DHT22;27435;48.480;9.258;2023-12-20T04:22:11;5.30;99.00
41756;DHT22;27435;48.480;9.258;2023-12-20T04:24:37;5.30;99.00
41756;DHT22;27435;48.480;9.258;2023-12-20T04:27:02;5.30;99.00
41756;DHT22;27435;48.480;9.258;2023-12-20T04:29:28;5.30;99.00
41756;DHT22;27435;48.480;9.258;2023-12-20T04:31:54;5.30;99.00
41756;DHT22;27435;48.480;9.258;2023-12-20T04:34:20;5.30;99.00
41756;DHT22;27435;48.480;9.258;2023-12-20T04:36:46;5.20;99.00
41756;DHT22;27435;48.480;9.258;2023-12-20T04:39:13;5.20;99.00
41756;DHT22;27435;48.480;9.258;2023-12-20T04:41:39;5.20;99.00
41756;DHT22;27435;48.480;9.258;2023-12-20T04:44:06;5.20;99.00
41756;DHT22;27435;48.480;9.258;2023-12-20T04:46:35;5.20;99.00
41756;DHT22;27435;48.480;9.258;2023-12-20T04:49:01;5.20;99.00
41756;DHT22;27435;48.480;9.258;2023-12-20T04:51:27;5.20;99.00
41756;DHT22;27435;48.480;9.258;2023-12-20T04:53:52;5.20;99.00
41756;DHT22;27435;48.480;9.258;2023-12-20T04:56:18;5.30;99.00
41756;DHT22;27435;48.480;9.258;2023-12-20T04:58:43;5.30;99.00
41756;DHT22;27435;48.480;9.258;2023-12-20T05:01:09;5.40;99.00
41756;DHT22;27435;48.480;9.258;2023-12-20T05:03:35;5.40;99.00
41756;DHT22;27435;48.480;9.258;2023-12-20T05:06:01;5.40;99.00
41756;DHT22;27435;48.480;9.258;2023-12-20T05:08:27;5.40;99.00
41756;DHT22;27435;48.480;9.258;2023-12-20T05:10:56;5.40;99.00
41756;DHT22;27435;48.480;9.258;2023-12-20T05:13:21;5.40;99.00
41756;DHT22;27435;48.480;9.258;2023-12-20T05:15:47;5.30;99.00
41756;DHT22;27435;48.480;9.258;2023-12-20T05:18:13;5.30;99.00
41756;DHT22;27435;48.480;9.258;2023-12-20T05:20:39;5.20;99.00
41756;DHT22;27435;48.480;9.258;2023-12-20T05:23:05;5.20;99.00
41756;DHT22;27435;48.480;9.258;2023-12-20T05:25:30;5.20;99.00
41756;DHT22;27435;48.480;9.258;2023-12-20T05:27:56;5.10;99.00
41756;DHT22;27435;48.480;9.258;2023-12-20T05:30:21;5.10;99.00
41756;DHT22;27435;48.480;9.258;2023-12-20T05:32:47;5.20;99.00
41756;DHT22;27435;48.480;9.258;2023-12-20T05:35:13;5.20;99.00
41756;DHT22;27435;48.480;9.258;2023-12-20T05:37:39;5.10;99.00
41756;DHT22;27435;48.480;9.258;2023-12-20T05:40:05;5.20;99.00
41756;DHT22;27435;48.480;9.258;2023-12-20T05:42:31;5.20;99.00
41756;DHT22;27435;48.480;9.258;2023-12-20T05:44:56;5.20;99.00
41756;DHT22;27435;48.480;9.258;2023-12-20T05:47:22;5.20;99.00
41756;DHT22;27435;48.480;9.258;2023-12-20T05:49:47;5.10;99.00
41756;DHT22;27435;48.480;9.258;2023-12-20T05:52:13;5.10;99.00
41756;DHT22;27435;48.480;9.258;2023-12-20T05:54:39;5.20;99.00
41756;DHT22;27435;48.480;9.258;2023-12-20T05:57:04;5.20;99.00
41756;DHT22;27435;48.480;9.258;2023-12-20T05:59:30;5.20;99.00
41756;DHT22;27435;48.480;9.258;2023-12-20T06:01:56;5.10;99.00
41756;DHT22;27435;48.480;9.258;2023-12-20T06:04:21;5.10;99.00
41756;DHT22;27435;48.480;9.258;2023-12-20T06:06:47;5.10;99.00
41756;DHT22;27435;48.480;9.258;2023-12-20T06:09:12;5.10;99.00
41756;DHT22;27435;48.480;9.258;2023-12-20T06:11:38;5.10;99.00
41756;DHT22;27435;48.480;9.258;2023-12-20T06:14:04;5.10;99.00
41756;DHT22;27435;48.480;9.258;2023-12-20T06:16:30;5.10;99.00
41756;DHT22;27435;48.480;9.258;2023-12-20T06:18:56;5.20;99.00
41756;DHT22;27435;48.480;9.258;2023-12-20T06:21:21;5.20;99.00
41756;DHT22;27435;48.480;9.258;2023-12-20T06:23:47;5.10;99.00
41756;DHT22;27435;48.480;9.258;2023-12-20T06:26:12;5.00;99.00
41756;DHT22;27435;48.480;9.258;2023-12-20T06:28:38;5.10;99.00
41756;DHT22;27435;48.480;9.258;2023-12-20T06:31:04;5.20;99.00
41756;DHT22;27435;48.480;9.258;2023-12-20T06:33:29;5.10;99.00
41756;DHT22;27435;48.480;9.258;2023-12-20T06:35:56;5.10;99.00
41756;DHT22;27435;48.480;9.258;2023-12-20T06:38:22;5.20;99.00
41756;DHT22;27435;48.480;9.258;2023-12-20T06:40:48;5.30;99.00
41756;DHT22;27435;48.480;9.258;2023-12-20T06:43:14;5.30;99.00
41756;DHT22;27435;48.480;9.258;2023-12-20T06:45:40;5.20;99.00
41756;DHT22;27435;48.480;9.258;2023-12-20T06:48:06;5.20;99.00
41756;DHT22;27435;48.480;9.258;2023-12-20T06:50:32;5.30;99.00
41756;DHT22;27435;48.480;9.258;2023-12-20T06:52:57;5.20;99.00
41756;DHT22;27435;48.480;9.258;2023-12-20T06:55:23;5.20;99.00
41756;DHT22;27435;48.480;9.258;2023-12-20T06:57:48;5.30;99.00
41756;DHT22;27435;48.480;9.258;2023-12-20T07:00:15;5.30;99.00
41756;DHT22;27435;48.480;9.258;2023-12-20T07:02:41;5.30;99.00
41756;DHT22;27435;48.480;9.258;2023-12-20T07:05:07;5.30;99.00
41756;DHT22;27435;48.480;9.258;2023-12-20T07:07:33;5.30;99.00
41756;DHT22;27435;48.480;9.258;2023-12-20T07:09:58;5.30;99.00
41756;DHT22;27435;48.480;9.258;2023-12-20T07:12:24;5.30;99.00
41756;DHT22;27435;48.480;9.258;2023-12-20T07:14:49;5.30;99.00
41756;DHT22;27435;48.480;9.258;2023-12-20T07:17:15;5.20;99.00
41756;DHT22;27435;48.480;9.258;2023-12-20T07:19:41;5.20;99.00
41756;DHT22;27435;48.480;9.258;2023-12-20T07:22:07;5.30;99.00
41756;DHT22;27435;48.480;9.258;2023-12-20T07:24:33;5.30;99.00
41756;DHT22;27435;48.480;9.258;2023-12-20T07:27:00;5.40;99.00
41756;DHT22;27435;48.480;9.258;2023-12-20T07:29:25;5.40;99.00
41756;DHT22;27435;48.480;9.258;2023-12-20T07:31:52;5.40;99.00
41756;DHT22;27435;48.480;9.258;2023-12-20T07:34:21;5.40;99.00
41756;DHT22;27435;48.480;9.258;2023-12-20T07:36:47;5.40;99.00
41756;DHT22;27435;48.480;9.258;2023-12-20T07:39:14;5.50;99.00
41756;DHT22;27435;48.480;9.258;2023-12-20T07:41:39;5.50;99.00
41756;DHT22;27435;48.480;9.258;2023-12-20T07:44:06;5.50;99.00
41756;DHT22;27435;48.480;9.258;2023-12-20T07:46:32;5.50;99.00
41756;DHT22;27435;48.480;9.258;2023-12-20T07:48:57;5.60;99.00
41756;DHT22;27435;48.480;9.258;2023-12-20T07:51:23;5.60;99.00
41756;DHT22;27435;48.480;9.258;2023-12-20T07:53:49;5.60;99.00
41756;DHT22;27435;48.480;9.258;2023-12-20T07:56:18;5.60;99.00
41756;DHT22;27435;48.480;9.258;2023-12-20T07:58:45;5.60;99.00
41756;DHT22;27435;48.480;9.258;2023-12-20T08:01:11;5.60;99.00
41756;DHT22;27435;48.480;9.258;2023-12-20T08:03:38;5.60;99.00
41756;DHT22;27435;48.480;9.258;2023-12-20T08:06:04;5.60;99.00
41756;DHT22;27435;48.480;9.258;2023-12-20T08:08:30;5.70;99.00
41756;DHT22;27435;48.480;9.258;2023-12-20T08:10:55;5.60;99.00
41756;DHT22;27435;48.480;9.258;2023-12-20T08:13:23;5.60;99.00
41756;DHT22;27435;48.480;9.258;2023-12-20T08:15:51;5.60;99.00
41756;DHT22;27435;48.480;9.258;2023-12-20T08:18:17;5.50;99.00
41756;DHT22;27435;48.480;9.258;2023-12-20T08:20:42;5.50;99.00
41756;DHT22;27435;48.480;9.258;2023-12-20T08:23:08;5.70;99.00
41756;DHT22;27435;48.480;9.258;2023-12-20T08:25:34;5.70;99.00
41756;DHT22;27435;48.480;9.258;2023-12-20T08:27:59;5.70;99.00
41756;DHT22;27435;48.480;9.258;2023-12-20T08:30:26;5.70;99.00
41756;DHT22;27435;48.480;9.258;2023-12-20T08:32:51;5.80;99.00
41756;DHT22;27435;48.480;9.258;2023-12-20T08:35:17;5.80;99.00
41756;DHT22;27435;48.480;9.258;2023-12-20T08:37:44;5.70;99.00
41756;DHT22;27435;48.480;9.258;2023-12-20T08:40:10;5.60;99.00
41756;DHT22;27435;48.480;9.258;2023-12-20T08:42:35;5.60;99.00
41756;DHT22;27435;48.480;9.258;2023-12-20T08:45:01;5.60;99.00
41756;DHT22;27435;48.480;9.258;2023-12-20T08:47:29;5.60;99.00
41756;DHT22;27435;48.480;9.258;2023-12-20T08:49:55;5.60;99.00
41756;DHT22;27435;48.480;9.258;2023-12-20T08:52:24;5.60;99.00
41756;DHT22;27435;48.480;9.258;2023-12-20T08:54:50;5.60;99.00
41756;DHT22;27435;48.480;9.258;2023-12-20T08:57:21;5.80;99.00
41756;DHT22;27435;48.480;9.258;2023-12-20T08:59:51;6.00;99.00
41756;DHT22;27435;48.480;9.258;2023-12-20T09:02:17;6.10;99.00
41756;DHT22;27435;48.480;9.258;2023-12-20T09:04:43;6.10;99.00
41756;DHT22;27435;48.480;9.258;2023-12-20T09:07:25;6.00;99.00
41756;DHT22;27435;48.480;9.258;2023-12-20T09:09:52;5.90;99.00
41756;DHT22;27435;48.480;9.258;2023-12-20T09:12:19;5.90;99.00
41756;DHT22;27435;48.480;9.258;2023-12-20T09:14:46;5.80;99.00
41756;DHT22;27435;48.480;9.258;2023-12-20T09:17:12;5.90;99.00
41756;DHT22;27435;48.480;9.258;2023-12-20T09:19:38;5.90;99.00
41756;DHT22;27435;48.480;9.258;2023-12-20T09:22:04;5.90;99.00
41756;DHT22;27435;48.480;9.258;2023-12-20T09:24:30;5.90;99.00
41756;DHT22;27435;48.480;9.258;2023-12-20T09:26:56;5.80;99.00
41756;DHT22;27435;48.480;9.258;2023-12-20T09:29:22;5.80;99.00
41756;DHT22;27435;48.480;9.258;2023-12-20T09:31:51;5.70;99.00
41756;DHT22;27435;48.480;9.258;2023-12-20T09:34:17;5.50;99.00
41756;DHT22;27435;48.480;9.258;2023-12-20T09:36:43;5.20;99.00
41756;DHT22;27435;48.480;9.258;2023-12-20T09:39:18;5.00;99.00
41756;DHT22;27435;48.480;9.258;2023-12-20T09:42:03;4.80;99.00
41756;DHT22;27435;48.480;9.258;2023-12-20T09:44:30;4.70;99.00
41756;DHT22;27435;48.480;9.258;2023-12-20T09:46:57;4.70;99.00
41756;DHT22;27435;48.480;9.258;2023-12-20T09:49:23;4.70;99.00
41756;DHT22;27435;48.480;9.258;2023-12-20T09:51:50;4.70;99.00
41756;DHT22;27435;48.480;9.258;2023-12-20T09:54:17;4.60;99.00
41756;DHT22;27435;48.480;9.258;2023-12-20T09:56:44;4.60;99.00
41756;DHT22;27435;48.480;9.258;2023-12-20T09:59:10;4.60;99.00
41756;DHT22;27435;48.480;9.258;2023-12-20T10:01:36;4.50;99.00
41756;DHT22;27435;48.480;9.258;2023-12-20T10:04:05;4.60;99.00
41756;DHT22;27435;48.480;9.258;2023-12-20T10:06:38;4.60;99.00
41756;DHT22;27435;48.480;9.258;2023-12-20T10:09:04;4.50;99.00
41756;DHT22;27435;48.480;9.258;2023-12-20T10:11:31;4.60;99.00
41756;DHT22;27435;48.480;9.258;2023-12-20T10:14:00;4.70;99.00
41756;DHT22;27435;48.480;9.258;2023-12-20T10:16:29;4.80;99.00
41756;DHT22;27435;48.480;9.258;2023-12-20T10:18:56;4.90;99.00
41756;DHT22;27435;48.480;9.258;2023-12-20T10:21:25;4.90;99.00
41756;DHT22;27435;48.480;9.258;2023-12-20T10:23:55;4.90;99.00
41756;DHT22;27435;48.480;9.258;2023-12-20T10:26:27;5.00;99.00
41756;DHT22;27435;48.480;9.258;2023-12-20T10:28:54;5.10;99.00
41756;DHT22;27435;48.480;9.258;2023-12-20T10:33:52;5.20;99.00
41756;DHT22;27435;48.480;9.258;2023-12-20T10:36:18;5.30;99.00
41756;DHT22;27435;48.480;9.258;2023-12-20T10:38:44;5.40;99.00
41756;DHT22;27435;48.480;9.258;2023-12-20T10:41:11;5.50;99.00
41756;DHT22;27435;48.480;9.258;2023-12-20T10:43:38;5.60;99.00
41756;DHT22;27435;48.480;9.258;2023-12-20T10:46:05;5.70;99.00
41756;DHT22;27435;48.480;9.258;2023-12-20T10:48:32;5.80;99.00
41756;DHT22;27435;48.480;9.258;2023-12-20T10:50:58;5.90;99.00
41756;DHT22;27435;48.480;9.258;2023-12-20T10:53:25;5.90;99.00
41756;DHT22;27435;48.480;9.258;2023-12-20T10:55:52;6.10;99.00
41756;DHT22;27435;48.480;9.258;2023-12-20T10:58:20;6.10;99.00
41756;DHT22;27435;48.480;9.258;2023-12-20T11:00:47;6.10;99.00
41756;DHT22;27435;48.480;9.258;2023-12-20T11:03:16;6.10;99.00
41756;DHT22;27435;48.480;9.258;2023-12-20T11:05:49;6.10;99.00
41756;DHT22;27435;48.480;9.258;2023-12-20T11:11:13;6.10;99.00
41756;DHT22;27435;48.480;9.258;2023-12-20T11:14:04;6.30;99.00
41756;DHT22;27435;48.480;9.258;2023-12-20T11:16:32;6.10;99.00
41756;DHT22;27435;48.480;9.258;2023-12-20T11:18:58;6.00;99.00
41756;DHT22;27435;48.480;9.258;2023-12-20T11:21:29;5.90;99.00
41756;DHT22;27435;48.480;9.258;2023-12-20T11:23:55;5.70;99.00
41756;DHT22;27435;48.480;9.258;2023-12-20T11:26:27;5.70;99.00
41756;DHT22;27435;48.480;9.258;2023-12-20T11:29:29;5.70;99.00
41756;DHT22;27435;48.480;9.258;2023-12-20T11:31:55;5.70;99.00
41756;DHT22;27435;48.480;9.258;2023-12-20T11:34:20;5.60;99.00
41756;DHT22;27435;48.480;9.258;2023-12-20T11:36:46;5.60;99.00
41756;DHT22;27435;48.480;9.258;2023-12-20T11:39:11;5.70;99.00
41756;DHT22;27435;48.480;9.258;2023-12-20T11:41:44;5.80;99.00
41756;DHT22;27435;48.480;9.258;2023-12-20T11:44:10;5.70;99.00
41756;DHT22;27435;48.480;9.258;2023-12-20T11:46:37;5.60;99.00
41756;DHT22;27435;48.480;9.258;2023-12-20T11:49:02;5.70;99.00
41756;DHT22;27435;48.480;9.258;2023-12-20T11:51:28;5.70;99.00
41756;DHT22;27435;48.480;9.258;2023-12-20T11:53:54;5.70;99.00
41756;DHT22;27435;48.480;9.258;2023-12-20T11:56:19;5.80;99.00
41756;DHT22;27435;48.480;9.258;2023-12-20T11:58:45;6.00;99.00
41756;DHT22;27435;48.480;9.258;2023-12-20T12:01:11;6.00;99.00
41756;DHT22;27435;48.480;9.258;2023-12-20T12:03:36;6.00;99.00
41756;DHT22;27435;48.480;9.258;2023-12-20T12:06:02;6.10;99.00
41756;DHT22;27435;48.480;9.258;2023-12-20T12:08:30;6.40;99.00
41756;DHT22;27435;48.480;9.258;2023-12-20T12:10:55;6.20;99.00
41756;DHT22;27435;48.480;9.258;2023-12-20T12:13:21;6.10;99.00
41756;DHT22;27435;48.480;9.258;2023-12-20T12:15:48;6.10;99.00
41756;DHT22;27435;48.480;9.258;2023-12-20T12:18:16;6.00;99.00
41756;DHT22;27435;48.480;9.258;2023-12-20T12:20:43;5.90;99.00
41756;DHT22;27435;48.480;9.258;2023-12-20T12:23:08;5.80;99.00
41756;DHT22;27435;48.480;9.258;2023-12-20T12:25:37;5.70;99.00
41756;DHT22;27435;48.480;9.258;2023-12-20T12:28:03;5.50;99.00
41756;DHT22;27435;48.480;9.258;2023-12-20T12:30:29;5.40;99.00
41756;DHT22;27435;48.480;9.258;2023-12-20T12:32:56;5.30;99.00
41756;DHT22;27435;48.480;9.258;2023-12-20T12:35:22;5.20;99.00
41756;DHT22;27435;48.480;9.258;2023-12-20T12:37:48;5.20;99.00
41756;DHT22;27435;48.480;9.258;2023-12-20T12:40:15;5.10;99.00
41756;DHT22;27435;48.480;9.258;2023-12-20T12:42:43;5.10;99.00
41756;DHT22;27435;48.480;9.258;2023-12-20T12:45:09;5.10;99.00
41756;DHT22;27435;48.480;9.258;2023-12-20T12:47:37;5.10;99.00
41756;DHT22;27435;48.480;9.258;2023-12-20T12:50:02;5.00;99.00
41756;DHT22;27435;48.480;9.258;2023-12-20T12:52:28;5.10;99.00
41756;DHT22;27435;48.480;9.258;2023-12-20T12:54:54;5.10;99.00
41756;DHT22;27435;48.480;9.258;2023-12-20T12:57:19;5.10;99.00
41756;DHT22;27435;48.480;9.258;2023-12-20T12:59:45;5.10;99.00
41756;DHT22;27435;48.480;9.258;2023-12-20T13:02:12;5.00;99.00
41756;DHT22;27435;48.480;9.258;2023-12-20T13:04:39;4.90;99.00
41756;DHT22;27435;48.480;9.258;2023-12-20T13:07:05;4.80;99.00
41756;DHT22;27435;48.480;9.258;2023-12-20T13:09:31;4.80;99.00
41756;DHT22;27435;48.480;9.258;2023-12-20T13:11:57;4.80;99.00
41756;DHT22;27435;48.480;9.258;2023-12-20T13:14:22;4.80;99.00
41756;DHT22;27435;48.480;9.258;2023-12-20T13:16:48;4.90;99.00
41756;DHT22;27435;48.480;9.258;2023-12-20T13:19:13;5.00;99.00
41756;DHT22;27435;48.480;9.258;2023-12-20T13:21:39;5.20;99.00
41756;DHT22;27435;48.480;9.258;2023-12-20T13:24:05;5.20;99.00
41756;DHT22;27435;48.480;9.258;2023-12-20T13:26:31;5.30;99.00
41756;DHT22;27435;48.480;9.258;2023-12-20T13:28:56;5.30;99.00
41756;DHT22;27435;48.480;9.258;2023-12-20T13:31:22;5.40;96.90
41756;DHT22;27435;48.480;9.258;2023-12-20T13:33:47;5.40;95.60
41756;DHT22;27435;48.480;9.258;2023-12-20T13:36:13;5.50;96.50
41756;DHT22;27435;48.480;9.258;2023-12-20T13:38:39;5.60;96.60
41756;DHT22;27435;48.480;9.258;2023-12-20T13:41:05;5.50;97.10
41756;DHT22;27435;48.480;9.258;2023-12-20T13:43:31;5.60;98.50
41756;DHT22;27435;48.480;9.258;2023-12-20T13:45:58;5.80;98.30
41756;DHT22;27435;48.480;9.258;2023-12-20T13:48:24;5.90;98.20
41756;DHT22;27435;48.480;9.258;2023-12-20T13:50:50;6.10;97.30
41756;DHT22;27435;48.480;9.258;2023-12-20T13:53:16;6.20;97.10
41756;DHT22;27435;48.480;9.258;2023-12-20T13:55:41;6.40;96.00
41756;DHT22;27435;48.480;9.258;2023-12-20T13:58:07;6.40;96.00
41756;DHT22;27435;48.480;9.258;2023-12-20T14:00:33;6.50;95.70
41756;DHT22;27435;48.480;9.258;2023-12-20T14:03:01;6.50;95.10
41756;DHT22;27435;48.480;9.258;2023-12-20T14:05:27;6.50;94.70
41756;DHT22;27435;48.480;9.258;2023-12-20T14:07:53;5.90;96.20
41756;DHT22;27435;48.480;9.258;2023-12-20T14:10:19;5.90;97.30
41756;DHT22;27435;48.480;9.258;2023-12-20T14:12:44;5.90;97.60
41756;DHT22;27435;48.480;9.258;2023-12-20T14:15:11;5.80;98.30
41756;DHT22;27435;48.480;9.258;2023-12-20T14:17:38;5.60;98.80
41756;DHT22;27435;48.480;9.258;2023-12-20T14:20:06;5.60;99.00
41756;DHT22;27435;48.480;9.258;2023-12-20T14:22:32;5.80;99.00
41756;DHT22;27435;48.480;9.258;2023-12-20T14:24:58;5.70;99.00
41756;DHT22;27435;48.480;9.258;2023-12-20T14:27:23;5.80;99.00
41756;DHT22;27435;48.480;9.258;2023-12-20T14:29:53;5.70;99.00
41756;DHT22;27435;48.480;9.258;2023-12-20T14:32:19;5.70;99.00
41756;DHT22;27435;48.480;9.258;2023-12-20T14:34:45;5.60;99.00
41756;DHT22;27435;48.480;9.258;2023-12-20T14:37:10;5.50;99.00
41756;DHT22;27435;48.480;9.258;2023-12-20T14:39:36;5.50;99.00
41756;DHT22;27435;48.480;9.258;2023-12-20T14:42:07;5.40;99.00
41756;DHT22;27435;48.480;9.258;2023-12-20T14:44:37;5.40;99.00
41756;DHT22;27435;48.480;9.258;2023-12-20T14:47:03;5.50;99.00
41756;DHT22;27435;48.480;9.258;2023-12-20T14:49:30;5.50;99.00
41756;DHT22;27435;48.480;9.258;2023-12-20T14:51:55;5.50;99.00
41756;DHT22;27435;48.480;9.258;2023-12-20T14:54:21;5.40;99.00
41756;DHT22;27435;48.480;9.258;2023-12-20T14:56:47;5.40;99.00
41756;DHT22;27435;48.480;9.258;2023-12-20T14:59:13;5.30;99.00
41756;DHT22;27435;48.480;9.258;2023-12-20T15:01:39;5.20;99.00
41756;DHT22;27435;48.480;9.258;2023-12-20T15:04:09;5.10;99.00
41756;DHT22;27435;48.480;9.258;2023-12-20T15:06:34;5.10;99.00
41756;DHT22;27435;48.480;9.258;2023-12-20T15:09:01;5.10;99.00
41756;DHT22;27435;48.480;9.258;2023-12-20T15:11:28;5.00;99.00
41756;DHT22;27435;48.480;9.258;2023-12-20T15:13:54;5.00;99.00
41756;DHT22;27435;48.480;9.258;2023-12-20T15:16:23;5.00;99.00
41756;DHT22;27435;48.480;9.258;2023-12-20T15:18:49;5.00;99.00
41756;DHT22;27435;48.480;9.258;2023-12-20T15:21:16;4.90;99.00
41756;DHT22;27435;48.480;9.258;2023-12-20T15:23:43;4.90;99.00
41756;DHT22;27435;48.480;9.258;2023-12-20T15:26:18;5.00;99.00
41756;DHT22;27435;48.480;9.258;2023-12-20T15:28:47;5.00;99.00
41756;DHT22;27435;48.480;9.258;2023-12-20T15:31:13;4.90;99.00
41756;DHT22;27435;48.480;9.258;2023-12-20T15:33:42;4.90;99.00
41756;DHT22;27435;48.480;9.258;2023-12-20T15:36:08;4.80;99.00
41756;DHT22;27435;48.480;9.258;2023-12-20T15:38:33;4.80;99.00
41756;DHT22;27435;48.480;9.258;2023-12-20T15:41:00;4.70;99.00
41756;DHT22;27435;48.480;9.258;2023-12-20T15:43:27;4.80;99.00
41756;DHT22;27435;48.480;9.258;2023-12-20T15:45:52;4.80;99.00